sensor_id;sensor_type;location;lat;lon;timestamp;P1;durP1;ratioP1;P2;durP2;ratioP2
7173;SDS011;3628;48.654;8.932;2023-06-22T00:01:56;5.53;;;4.68;;
7173;SDS011;3628;48.654;8.932;2023-06-22T00:04:21;6.00;;;4.88;;
7173;SDS011;3628;48.654;8.932;2023-06-22T00:06:47;6.15;;;4.88;;
7173;SDS011;3628;48.654;8.932;2023-06-22T00:09:12;7.78;;;4.70;;
7173;SDS011;3628;48.654;8.932;2023-06-22T00:11:38;5.57;;;4.72;;
7173;SDS011;3628;48.654;8.932;2023-06-22T00:14:04;5.10;;;4.45;;
7173;SDS011;3628;48.654;8.932;2023-06-22T00:16:31;5.82;;;4.68;;
7173;SDS011;3628;48.654;8.932;2023-06-22T00:18:57;6.40;;;4.75;;
7173;SDS011;3628;48.654;8.932;2023-06-22T00:21:25;6.13;;;4.93;;
7173;SDS011;3628;48.654;8.932;2023-06-22T00:23:54;6.75;;;4.90;;
7173;SDS011;3628;48.654;8.932;2023-06-22T00:26:20;7.43;;;4.82;;
7173;SDS011;3628;48.654;8.932;2023-06-22T00:28:46;7.88;;;4.75;;
7173;SDS011;3628;48.654;8.932;2023-06-22T00:31:12;6.60;;;4.63;;
7173;SDS011;3628;48.654;8.932;2023-06-22T00:33:38;6.13;;;5.25;;
7173;SDS011;3628;48.654;8.932;2023-06-22T00:36:03;5.32;;;4.15;;
7173;SDS011;3628;48.654;8.932;2023-06-22T00:38:29;6.78;;;4.97;;
7173;SDS011;3628;48.654;8.932;2023-06-22T00:40:55;5.88;;;4.85;;
7173;SDS011;3628;48.654;8.932;2023-06-22T00:43:20;6.43;;;5.30;;
7173;SDS011;3628;48.654;8.932;2023-06-22T00:45:46;6.97;;;5.15;;
7173;SDS011;3628;48.654;8.932;2023-06-22T00:48:12;6.40;;;4.40;;
7173;SDS011;3628;48.654;8.932;2023-06-22T00:50:39;6.47;;;5.38;;
7173;SDS011;3628;48.654;8.932;2023-06-22T00:53:06;5.70;;;5.20;;
7173;SDS011;3628;48.654;8.932;2023-06-22T00:55:36;9.23;;;5.60;;
7173;SDS011;3628;48.654;8.932;2023-06-22T00:58:04;7.60;;;5.38;;
7173;SDS011;3628;48.654;8.932;2023-06-22T01:00:35;6.40;;;5.25;;
7173;SDS011;3628;48.654;8.932;2023-06-22T01:03:01;6.35;;;4.95;;
7173;SDS011;3628;48.654;8.932;2023-06-22T01:05:27;8.55;;;4.80;;
7173;SDS011;3628;48.654;8.932;2023-06-22T01:10:39;5.78;;;5.15;;
7173;SDS011;3628;48.654;8.932;2023-06-22T01:18:50;5.85;;;4.72;;
7173;SDS011;3628;48.654;8.932;2023-06-22T01:21:20;5.35;;;4.85;;
7173;SDS011;3628;48.654;8.932;2023-06-22T01:23:51;5.53;;;5.03;;
7173;SDS011;3628;48.654;8.932;2023-06-22T01:26:42;9.55;;;5.57;;
7173;SDS011;3628;48.654;8.932;2023-06-22T01:29:11;4.93;;;4.43;;
7173;SDS011;3628;48.654;8.932;2023-06-22T01:31:38;5.88;;;4.57;;
7173;SDS011;3628;48.654;8.932;2023-06-22T01:34:06;6.10;;;4.65;;
7173;SDS011;3628;48.654;8.932;2023-06-22T01:36:33;6.05;;;4.63;;
7173;SDS011;3628;48.654;8.932;2023-06-22T01:39:00;6.05;;;5.40;;
7173;SDS011;3628;48.654;8.932;2023-06-22T01:41:28;8.18;;;5.10;;
7173;SDS011;3628;48.654;8.932;2023-06-22T01:43:56;6.03;;;4.90;;
7173;SDS011;3628;48.654;8.932;2023-06-22T01:46:22;7.35;;;4.93;;
7173;SDS011;3628;48.654;8.932;2023-06-22T01:48:48;5.18;;;4.68;;
7173;SDS011;3628;48.654;8.932;2023-06-22T01:51:15;5.75;;;4.88;;
7173;SDS011;3628;48.654;8.932;2023-06-22T01:53:41;7.05;;;4.95;;
7173;SDS011;3628;48.654;8.932;2023-06-22T01:56:07;5.30;;;4.80;;
7173;SDS011;3628;48.654;8.932;2023-06-22T01:58:33;5.65;;;4.72;;
7173;SDS011;3628;48.654;8.932;2023-06-22T02:01:09;5.82;;;5.03;;
7173;SDS011;3628;48.654;8.932;2023-06-22T02:03:58;8.15;;;5.25;;
7173;SDS011;3628;48.654;8.932;2023-06-22T02:06:31;7.18;;;4.88;;
7173;SDS011;3628;48.654;8.932;2023-06-22T02:09:02;6.32;;;5.15;;
7173;SDS011;3628;48.654;8.932;2023-06-22T02:11:32;8.85;;;4.88;;
7173;SDS011;3628;48.654;8.932;2023-06-22T02:13:59;8.88;;;5.40;;
7173;SDS011;3628;48.654;8.932;2023-06-22T02:16:25;5.68;;;4.82;;
7173;SDS011;3628;48.654;8.932;2023-06-22T02:18:54;7.80;;;5.78;;
7173;SDS011;3628;48.654;8.932;2023-06-22T02:21:23;5.93;;;4.82;;
7173;SDS011;3628;48.654;8.932;2023-06-22T02:23:49;8.07;;;5.35;;
7173;SDS011;3628;48.654;8.932;2023-06-22T02:26:16;6.35;;;4.85;;
7173;SDS011;3628;48.654;8.932;2023-06-22T02:28:42;8.75;;;5.20;;
7173;SDS011;3628;48.654;8.932;2023-06-22T02:31:08;7.70;;;5.43;;
7173;SDS011;3628;48.654;8.932;2023-06-22T02:33:33;8.50;;;6.13;;
7173;SDS011;3628;48.654;8.932;2023-06-22T02:35:59;7.28;;;5.28;;
7173;SDS011;3628;48.654;8.932;2023-06-22T02:38:24;8.60;;;5.07;;
7173;SDS011;3628;48.654;8.932;2023-06-22T02:40:50;7.00;;;5.05;;
7173;SDS011;3628;48.654;8.932;2023-06-22T02:43:16;6.78;;;5.05;;
7173;SDS011;3628;48.654;8.932;2023-06-22T02:45:41;6.38;;;4.78;;
7173;SDS011;3628;48.654;8.932;2023-06-22T02:48:07;7.28;;;4.93;;
7173;SDS011;3628;48.654;8.932;2023-06-22T02:50:32;5.57;;;5.03;;
7173;SDS011;3628;48.654;8.932;2023-06-22T02:52:58;5.97;;;4.50;;
7173;SDS011;3628;48.654;8.932;2023-06-22T02:55:24;7.65;;;5.07;;
7173;SDS011;3628;48.654;8.932;2023-06-22T02:57:49;6.80;;;4.55;;
7173;SDS011;3628;48.654;8.932;2023-06-22T03:00:18;11.43;;;5.30;;
7173;SDS011;3628;48.654;8.932;2023-06-22T03:02:45;9.30;;;4.40;;
7173;SDS011;3628;48.654;8.932;2023-06-22T03:05:11;6.32;;;4.95;;
7173;SDS011;3628;48.654;8.932;2023-06-22T03:07:39;8.57;;;4.80;;
7173;SDS011;3628;48.654;8.932;2023-06-22T03:10:10;8.77;;;5.47;;
7173;SDS011;3628;48.654;8.932;2023-06-22T03:12:36;7.78;;;5.40;;
7173;SDS011;3628;48.654;8.932;2023-06-22T03:15:03;9.48;;;4.63;;
7173;SDS011;3628;48.654;8.932;2023-06-22T03:17:38;6.18;;;4.75;;
7173;SDS011;3628;48.654;8.932;2023-06-22T03:20:05;7.82;;;4.60;;
7173;SDS011;3628;48.654;8.932;2023-06-22T03:22:35;5.20;;;4.30;;
7173;SDS011;3628;48.654;8.932;2023-06-22T03:25:04;10.18;;;5.53;;
7173;SDS011;3628;48.654;8.932;2023-06-22T03:27:36;9.27;;;5.50;;
7173;SDS011;3628;48.654;8.932;2023-06-22T03:30:02;8.43;;;5.00;;
7173;SDS011;3628;48.654;8.932;2023-06-22T03:32:28;7.65;;;5.10;;
7173;SDS011;3628;48.654;8.932;2023-06-22T03:34:53;8.27;;;4.65;;
7173;SDS011;3628;48.654;8.932;2023-06-22T03:37:19;11.63;;;5.25;;
7173;SDS011;3628;48.654;8.932;2023-06-22T03:39:44;8.88;;;5.30;;
7173;SDS011;3628;48.654;8.932;2023-06-22T03:42:10;7.07;;;5.55;;
7173;SDS011;3628;48.654;8.932;2023-06-22T03:44:36;7.05;;;4.80;;
7173;SDS011;3628;48.654;8.932;2023-06-22T03:47:02;10.88;;;4.95;;
7173;SDS011;3628;48.654;8.932;2023-06-22T03:49:29;7.38;;;5.18;;
7173;SDS011;3628;48.654;8.932;2023-06-22T03:51:54;6.03;;;4.65;;
7173;SDS011;3628;48.654;8.932;2023-06-22T03:54:20;7.65;;;5.03;;
7173;SDS011;3628;48.654;8.932;2023-06-22T03:56:45;10.00;;;4.93;;
7173;SDS011;3628;48.654;8.932;2023-06-22T03:59:11;7.05;;;4.50;;
7173;SDS011;3628;48.654;8.932;2023-06-22T04:01:36;14.63;;;5.35;;
7173;SDS011;3628;48.654;8.932;2023-06-22T04:04:02;11.32;;;5.40;;
7173;SDS011;3628;48.654;8.932;2023-06-22T04:06:27;7.00;;;5.00;;
7173;SDS011;3628;48.654;8.932;2023-06-22T04:08:53;7.60;;;5.03;;
7173;SDS011;3628;48.654;8.932;2023-06-22T04:11:19;9.73;;;4.93;;
7173;SDS011;3628;48.654;8.932;2023-06-22T04:13:44;7.88;;;4.55;;
7173;SDS011;3628;48.654;8.932;2023-06-22T04:16:10;6.30;;;4.57;;
7173;SDS011;3628;48.654;8.932;2023-06-22T04:18:35;7.45;;;5.22;;
7173;SDS011;3628;48.654;8.932;2023-06-22T04:21:01;10.18;;;4.68;;
7173;SDS011;3628;48.654;8.932;2023-06-22T04:23:27;8.35;;;5.40;;
7173;SDS011;3628;48.654;8.932;2023-06-22T04:25:53;9.20;;;4.63;;
7173;SDS011;3628;48.654;8.932;2023-06-22T04:28:18;6.65;;;4.95;;
7173;SDS011;3628;48.654;8.932;2023-06-22T04:30:44;10.50;;;5.28;;
7173;SDS011;3628;48.654;8.932;2023-06-22T04:33:15;7.07;;;4.53;;
7173;SDS011;3628;48.654;8.932;2023-06-22T04:35:41;8.18;;;4.13;;
7173;SDS011;3628;48.654;8.932;2023-06-22T04:38:07;7.07;;;4.65;;
7173;SDS011;3628;48.654;8.932;2023-06-22T04:40:33;8.02;;;4.75;;
7173;SDS011;3628;48.654;8.932;2023-06-22T04:42:59;6.05;;;4.85;;
7173;SDS011;3628;48.654;8.932;2023-06-22T04:45:27;7.25;;;4.57;;
7173;SDS011;3628;48.654;8.932;2023-06-22T04:47:54;8.88;;;4.80;;
7173;SDS011;3628;48.654;8.932;2023-06-22T04:50:19;10.75;;;5.47;;
7173;SDS011;3628;48.654;8.932;2023-06-22T04:52:46;9.50;;;4.95;;
7173;SDS011;3628;48.654;8.932;2023-06-22T04:55:12;6.72;;;4.22;;
7173;SDS011;3628;48.654;8.932;2023-06-22T04:57:43;5.95;;;4.57;;
7173;SDS011;3628;48.654;8.932;2023-06-22T05:00:14;5.72;;;4.60;;
7173;SDS011;3628;48.654;8.932;2023-06-22T05:02:45;8.88;;;5.13;;
7173;SDS011;3628;48.654;8.932;2023-06-22T05:05:11;7.45;;;5.28;;
7173;SDS011;3628;48.654;8.932;2023-06-22T05:07:46;6.38;;;5.22;;
7173;SDS011;3628;48.654;8.932;2023-06-22T05:10:17;10.40;;;5.18;;
7173;SDS011;3628;48.654;8.932;2023-06-22T05:12:46;6.68;;;4.68;;
7173;SDS011;3628;48.654;8.932;2023-06-22T05:15:12;8.32;;;5.43;;
7173;SDS011;3628;48.654;8.932;2023-06-22T05:17:37;7.70;;;5.65;;
7173;SDS011;3628;48.654;8.932;2023-06-22T05:20:10;6.47;;;4.70;;
7173;SDS011;3628;48.654;8.932;2023-06-22T05:22:36;6.97;;;4.93;;
7173;SDS011;3628;48.654;8.932;2023-06-22T05:25:02;9.05;;;5.53;;
7173;SDS011;3628;48.654;8.932;2023-06-22T05:27:28;7.68;;;4.90;;
7173;SDS011;3628;48.654;8.932;2023-06-22T05:29:54;6.13;;;4.80;;
7173;SDS011;3628;48.654;8.932;2023-06-22T05:32:19;9.00;;;5.13;;
7173;SDS011;3628;48.654;8.932;2023-06-22T05:34:45;8.90;;;5.38;;
7173;SDS011;3628;48.654;8.932;2023-06-22T05:37:11;9.13;;;5.18;;
7173;SDS011;3628;48.654;8.932;2023-06-22T05:39:37;5.80;;;4.70;;
7173;SDS011;3628;48.654;8.932;2023-06-22T05:42:07;6.95;;;5.03;;
7173;SDS011;3628;48.654;8.932;2023-06-22T05:44:32;7.90;;;5.05;;
7173;SDS011;3628;48.654;8.932;2023-06-22T05:46:58;8.27;;;5.05;;
7173;SDS011;3628;48.654;8.932;2023-06-22T05:49:24;6.22;;;4.20;;
7173;SDS011;3628;48.654;8.932;2023-06-22T05:51:54;8.00;;;5.05;;
7173;SDS011;3628;48.654;8.932;2023-06-22T05:54:20;6.43;;;5.22;;
7173;SDS011;3628;48.654;8.932;2023-06-22T05:56:45;6.75;;;5.10;;
7173;SDS011;3628;48.654;8.932;2023-06-22T05:59:11;6.40;;;5.07;;
7173;SDS011;3628;48.654;8.932;2023-06-22T06:01:37;5.78;;;4.80;;
7173;SDS011;3628;48.654;8.932;2023-06-22T06:04:03;10.40;;;5.43;;
7173;SDS011;3628;48.654;8.932;2023-06-22T06:06:29;7.30;;;4.90;;
7173;SDS011;3628;48.654;8.932;2023-06-22T06:08:55;6.10;;;4.13;;
7173;SDS011;3628;48.654;8.932;2023-06-22T06:11:21;5.68;;;4.13;;
7173;SDS011;3628;48.654;8.932;2023-06-22T06:13:47;6.78;;;3.60;;
7173;SDS011;3628;48.654;8.932;2023-06-22T06:16:12;9.05;;;3.90;;
7173;SDS011;3628;48.654;8.932;2023-06-22T06:18:38;6.75;;;3.75;;
7173;SDS011;3628;48.654;8.932;2023-06-22T06:21:03;6.18;;;3.50;;
7173;SDS011;3628;48.654;8.932;2023-06-22T06:23:29;5.28;;;4.00;;
7173;SDS011;3628;48.654;8.932;2023-06-22T06:25:54;5.10;;;3.83;;
7173;SDS011;3628;48.654;8.932;2023-06-22T06:28:20;5.60;;;3.95;;
7173;SDS011;3628;48.654;8.932;2023-06-22T06:30:46;7.35;;;3.60;;
7173;SDS011;3628;48.654;8.932;2023-06-22T06:33:12;6.72;;;3.00;;
7173;SDS011;3628;48.654;8.932;2023-06-22T06:35:38;5.00;;;3.53;;
7173;SDS011;3628;48.654;8.932;2023-06-22T06:38:03;4.63;;;3.33;;
7173;SDS011;3628;48.654;8.932;2023-06-22T06:40:29;4.68;;;3.42;;
7173;SDS011;3628;48.654;8.932;2023-06-22T06:42:55;3.05;;;2.75;;
7173;SDS011;3628;48.654;8.932;2023-06-22T06:45:21;4.60;;;3.25;;
7173;SDS011;3628;48.654;8.932;2023-06-22T06:47:47;4.38;;;3.10;;
7173;SDS011;3628;48.654;8.932;2023-06-22T06:50:14;5.43;;;2.92;;
7173;SDS011;3628;48.654;8.932;2023-06-22T06:52:40;5.03;;;2.78;;
7173;SDS011;3628;48.654;8.932;2023-06-22T06:55:06;6.68;;;3.30;;
7173;SDS011;3628;48.654;8.932;2023-06-22T06:57:35;6.03;;;3.10;;
7173;SDS011;3628;48.654;8.932;2023-06-22T07:00:02;4.47;;;2.95;;
7173;SDS011;3628;48.654;8.932;2023-06-22T07:02:34;6.85;;;3.10;;
7173;SDS011;3628;48.654;8.932;2023-06-22T07:05:00;3.50;;;2.50;;
7173;SDS011;3628;48.654;8.932;2023-06-22T07:07:29;3.92;;;2.88;;
7173;SDS011;3628;48.654;8.932;2023-06-22T07:09:54;4.25;;;2.58;;
7173;SDS011;3628;48.654;8.932;2023-06-22T07:12:20;4.03;;;2.90;;
7173;SDS011;3628;48.654;8.932;2023-06-22T07:14:46;6.50;;;2.97;;
7173;SDS011;3628;48.654;8.932;2023-06-22T07:17:11;5.40;;;3.42;;
7173;SDS011;3628;48.654;8.932;2023-06-22T07:19:37;5.03;;;2.85;;
7173;SDS011;3628;48.654;8.932;2023-06-22T07:22:03;4.72;;;2.90;;
7173;SDS011;3628;48.654;8.932;2023-06-22T07:24:28;5.93;;;3.35;;
7173;SDS011;3628;48.654;8.932;2023-06-22T07:26:54;4.60;;;2.70;;
7173;SDS011;3628;48.654;8.932;2023-06-22T07:29:20;4.22;;;3.20;;
7173;SDS011;3628;48.654;8.932;2023-06-22T07:31:46;5.30;;;3.13;;
7173;SDS011;3628;48.654;8.932;2023-06-22T07:34:12;4.63;;;3.15;;
7173;SDS011;3628;48.654;8.932;2023-06-22T07:36:38;5.75;;;3.22;;
7173;SDS011;3628;48.654;8.932;2023-06-22T07:39:04;4.30;;;3.00;;
7173;SDS011;3628;48.654;8.932;2023-06-22T07:41:30;6.53;;;3.58;;
7173;SDS011;3628;48.654;8.932;2023-06-22T07:43:56;4.25;;;3.03;;
7173;SDS011;3628;48.654;8.932;2023-06-22T07:46:22;6.88;;;2.85;;
7173;SDS011;3628;48.654;8.932;2023-06-22T07:48:47;3.53;;;3.03;;
7173;SDS011;3628;48.654;8.932;2023-06-22T07:51:13;6.38;;;3.33;;
7173;SDS011;3628;48.654;8.932;2023-06-22T07:53:43;4.72;;;3.05;;
7173;SDS011;3628;48.654;8.932;2023-06-22T07:56:12;5.35;;;3.42;;
7173;SDS011;3628;48.654;8.932;2023-06-22T07:58:38;8.25;;;3.30;;
7173;SDS011;3628;48.654;8.932;2023-06-22T08:01:04;5.75;;;3.30;;
7173;SDS011;3628;48.654;8.932;2023-06-22T08:03:31;6.20;;;3.05;;
7173;SDS011;3628;48.654;8.932;2023-06-22T08:05:56;5.45;;;3.00;;
7173;SDS011;3628;48.654;8.932;2023-06-22T08:08:22;5.47;;;3.20;;
7173;SDS011;3628;48.654;8.932;2023-06-22T08:10:48;7.40;;;3.38;;
7173;SDS011;3628;48.654;8.932;2023-06-22T08:13:14;6.55;;;2.92;;
7173;SDS011;3628;48.654;8.932;2023-06-22T08:15:40;10.40;;;3.97;;
7173;SDS011;3628;48.654;8.932;2023-06-22T08:18:05;5.22;;;3.55;;
7173;SDS011;3628;48.654;8.932;2023-06-22T08:20:31;4.95;;;3.28;;
7173;SDS011;3628;48.654;8.932;2023-06-22T08:22:57;6.32;;;3.13;;
7173;SDS011;3628;48.654;8.932;2023-06-22T08:25:25;6.22;;;3.00;;
7173;SDS011;3628;48.654;8.932;2023-06-22T08:27:51;5.32;;;2.83;;
7173;SDS011;3628;48.654;8.932;2023-06-22T08:30:16;7.15;;;3.20;;
7173;SDS011;3628;48.654;8.932;2023-06-22T08:32:43;6.22;;;3.08;;
7173;SDS011;3628;48.654;8.932;2023-06-22T08:35:09;6.30;;;3.30;;
7173;SDS011;3628;48.654;8.932;2023-06-22T08:37:35;4.13;;;3.25;;
7173;SDS011;3628;48.654;8.932;2023-06-22T08:40:01;8.13;;;3.13;;
7173;SDS011;3628;48.654;8.932;2023-06-22T08:42:30;4.97;;;3.30;;
7173;SDS011;3628;48.654;8.932;2023-06-22T08:44:56;4.53;;;3.60;;
7173;SDS011;3628;48.654;8.932;2023-06-22T08:47:31;6.03;;;3.38;;
7173;SDS011;3628;48.654;8.932;2023-06-22T08:49:57;8.13;;;3.90;;
7173;SDS011;3628;48.654;8.932;2023-06-22T08:52:22;8.57;;;3.30;;
7173;SDS011;3628;48.654;8.932;2023-06-22T08:54:48;5.97;;;3.50;;
7173;SDS011;3628;48.654;8.932;2023-06-22T08:57:14;6.65;;;3.38;;
7173;SDS011;3628;48.654;8.932;2023-06-22T08:59:40;5.60;;;3.53;;
7173;SDS011;3628;48.654;8.932;2023-06-22T09:02:07;7.18;;;3.40;;
7173;SDS011;3628;48.654;8.932;2023-06-22T09:04:33;6.20;;;3.60;;
7173;SDS011;3628;48.654;8.932;2023-06-22T09:07:00;5.18;;;3.22;;
7173;SDS011;3628;48.654;8.932;2023-06-22T09:09:26;6.05;;;3.83;;
7173;SDS011;3628;48.654;8.932;2023-06-22T09:11:51;5.32;;;3.35;;
7173;SDS011;3628;48.654;8.932;2023-06-22T09:14:17;8.07;;;3.67;;
7173;SDS011;3628;48.654;8.932;2023-06-22T09:16:43;5.47;;;3.25;;
7173;SDS011;3628;48.654;8.932;2023-06-22T09:19:08;5.10;;;3.03;;
7173;SDS011;3628;48.654;8.932;2023-06-22T09:21:34;5.93;;;2.90;;
7173;SDS011;3628;48.654;8.932;2023-06-22T09:23:59;8.48;;;3.33;;
7173;SDS011;3628;48.654;8.932;2023-06-22T09:26:25;6.40;;;3.28;;
7173;SDS011;3628;48.654;8.932;2023-06-22T09:28:51;6.60;;;3.47;;
7173;SDS011;3628;48.654;8.932;2023-06-22T09:31:16;5.38;;;3.30;;
7173;SDS011;3628;48.654;8.932;2023-06-22T09:33:42;4.07;;;3.10;;
7173;SDS011;3628;48.654;8.932;2023-06-22T09:36:08;8.55;;;3.33;;
7173;SDS011;3628;48.654;8.932;2023-06-22T09:38:37;6.95;;;3.58;;
7173;SDS011;3628;48.654;8.932;2023-06-22T09:41:03;8.95;;;3.97;;
7173;SDS011;3628;48.654;8.932;2023-06-22T09:43:31;5.75;;;3.65;;
7173;SDS011;3628;48.654;8.932;2023-06-22T09:46:00;6.68;;;3.10;;
7173;SDS011;3628;48.654;8.932;2023-06-22T09:48:27;7.05;;;3.47;;
7173;SDS011;3628;48.654;8.932;2023-06-22T09:50:53;6.28;;;3.25;;
7173;SDS011;3628;48.654;8.932;2023-06-22T09:53:19;9.52;;;3.42;;
7173;SDS011;3628;48.654;8.932;2023-06-22T09:55:44;7.95;;;3.25;;
7173;SDS011;3628;48.654;8.932;2023-06-22T09:58:10;6.00;;;3.30;;
7173;SDS011;3628;48.654;8.932;2023-06-22T10:00:35;3.78;;;2.95;;
7173;SDS011;3628;48.654;8.932;2023-06-22T10:03:01;5.40;;;2.70;;
7173;SDS011;3628;48.654;8.932;2023-06-22T10:05:26;9.00;;;3.33;;
7173;SDS011;3628;48.654;8.932;2023-06-22T10:07:52;5.53;;;3.38;;
7173;SDS011;3628;48.654;8.932;2023-06-22T10:10:17;7.10;;;3.45;;
7173;SDS011;3628;48.654;8.932;2023-06-22T10:12:47;7.03;;;3.22;;
7173;SDS011;3628;48.654;8.932;2023-06-22T10:15:19;6.05;;;3.28;;
7173;SDS011;3628;48.654;8.932;2023-06-22T10:17:46;6.30;;;3.25;;
7173;SDS011;3628;48.654;8.932;2023-06-22T10:20:12;8.05;;;3.20;;
7173;SDS011;3628;48.654;8.932;2023-06-22T10:22:38;4.88;;;3.47;;
7173;SDS011;3628;48.654;8.932;2023-06-22T10:25:08;5.45;;;3.10;;
7173;SDS011;3628;48.654;8.932;2023-06-22T10:27:35;4.50;;;3.15;;
7173;SDS011;3628;48.654;8.932;2023-06-22T10:30:00;8.05;;;3.25;;
7173;SDS011;3628;48.654;8.932;2023-06-22T10:32:26;7.03;;;3.33;;
7173;SDS011;3628;48.654;8.932;2023-06-22T10:34:53;10.18;;;3.47;;
7173;SDS011;3628;48.654;8.932;2023-06-22T10:37:19;10.05;;;3.58;;
7173;SDS011;3628;48.654;8.932;2023-06-22T10:39:44;8.77;;;3.20;;
7173;SDS011;3628;48.654;8.932;2023-06-22T10:42:10;6.40;;;3.35;;
7173;SDS011;3628;48.654;8.932;2023-06-22T10:44:37;7.70;;;3.95;;
7173;SDS011;3628;48.654;8.932;2023-06-22T10:47:03;5.25;;;3.03;;
7173;SDS011;3628;48.654;8.932;2023-06-22T10:49:29;7.47;;;3.72;;
7173;SDS011;3628;48.654;8.932;2023-06-22T10:51:55;8.60;;;3.17;;
7173;SDS011;3628;48.654;8.932;2023-06-22T10:54:20;13.88;;;3.85;;
7173;SDS011;3628;48.654;8.932;2023-06-22T10:56:46;8.70;;;3.75;;
7173;SDS011;3628;48.654;8.932;2023-06-22T10:59:11;7.80;;;3.42;;
7173;SDS011;3628;48.654;8.932;2023-06-22T11:01:37;6.55;;;3.33;;
7173;SDS011;3628;48.654;8.932;2023-06-22T11:04:03;9.68;;;4.35;;
7173;SDS011;3628;48.654;8.932;2023-06-22T11:06:29;8.68;;;3.70;;
7173;SDS011;3628;48.654;8.932;2023-06-22T11:08:54;6.10;;;3.13;;
7173;SDS011;3628;48.654;8.932;2023-06-22T11:11:20;8.23;;;3.15;;
7173;SDS011;3628;48.654;8.932;2023-06-22T11:13:46;7.35;;;3.40;;
7173;SDS011;3628;48.654;8.932;2023-06-22T11:16:11;11.05;;;3.60;;
7173;SDS011;3628;48.654;8.932;2023-06-22T11:18:37;4.70;;;3.15;;
7173;SDS011;3628;48.654;8.932;2023-06-22T11:21:03;9.90;;;3.60;;
7173;SDS011;3628;48.654;8.932;2023-06-22T11:23:28;6.88;;;3.80;;
7173;SDS011;3628;48.654;8.932;2023-06-22T11:25:55;6.40;;;3.63;;
7173;SDS011;3628;48.654;8.932;2023-06-22T11:28:20;5.60;;;3.60;;
7173;SDS011;3628;48.654;8.932;2023-06-22T11:30:46;10.00;;;3.33;;
7173;SDS011;3628;48.654;8.932;2023-06-22T11:33:11;5.25;;;3.33;;
7173;SDS011;3628;48.654;8.932;2023-06-22T11:35:37;7.32;;;3.33;;
7173;SDS011;3628;48.654;8.932;2023-06-22T11:38:02;6.90;;;3.70;;
7173;SDS011;3628;48.654;8.932;2023-06-22T11:40:29;8.85;;;3.35;;
7173;SDS011;3628;48.654;8.932;2023-06-22T11:42:55;7.38;;;3.38;;
7173;SDS011;3628;48.654;8.932;2023-06-22T11:45:21;10.68;;;3.85;;
7173;SDS011;3628;48.654;8.932;2023-06-22T11:47:46;8.02;;;3.70;;
7173;SDS011;3628;48.654;8.932;2023-06-22T11:50:12;12.55;;;3.95;;
7173;SDS011;3628;48.654;8.932;2023-06-22T11:52:38;9.18;;;3.63;;
7173;SDS011;3628;48.654;8.932;2023-06-22T11:55:04;7.65;;;4.20;;
7173;SDS011;3628;48.654;8.932;2023-06-22T11:57:35;7.82;;;3.63;;
7173;SDS011;3628;48.654;8.932;2023-06-22T12:00:02;6.85;;;3.80;;
7173;SDS011;3628;48.654;8.932;2023-06-22T12:02:39;6.97;;;3.70;;
7173;SDS011;3628;48.654;8.932;2023-06-22T12:05:05;8.35;;;3.60;;
7173;SDS011;3628;48.654;8.932;2023-06-22T12:07:31;6.95;;;3.47;;
7173;SDS011;3628;48.654;8.932;2023-06-22T12:09:56;6.68;;;3.35;;
7173;SDS011;3628;48.654;8.932;2023-06-22T12:12:22;8.02;;;4.13;;
7173;SDS011;3628;48.654;8.932;2023-06-22T12:14:47;7.45;;;3.63;;
7173;SDS011;3628;48.654;8.932;2023-06-22T12:17:13;7.50;;;3.47;;
7173;SDS011;3628;48.654;8.932;2023-06-22T12:19:38;8.48;;;3.33;;
7173;SDS011;3628;48.654;8.932;2023-06-22T12:22:04;9.95;;;3.78;;
7173;SDS011;3628;48.654;8.932;2023-06-22T12:24:30;6.10;;;3.50;;
7173;SDS011;3628;48.654;8.932;2023-06-22T12:26:55;7.63;;;3.60;;
7173;SDS011;3628;48.654;8.932;2023-06-22T12:29:21;6.00;;;3.70;;
7173;SDS011;3628;48.654;8.932;2023-06-22T12:31:46;6.32;;;4.00;;
7173;SDS011;3628;48.654;8.932;2023-06-22T12:34:12;7.07;;;3.17;;
7173;SDS011;3628;48.654;8.932;2023-06-22T12:36:37;6.18;;;3.30;;
7173;SDS011;3628;48.654;8.932;2023-06-22T12:39:03;6.97;;;3.53;;
7173;SDS011;3628;48.654;8.932;2023-06-22T12:41:28;6.70;;;3.80;;
7173;SDS011;3628;48.654;8.932;2023-06-22T12:43:54;7.70;;;3.92;;
7173;SDS011;3628;48.654;8.932;2023-06-22T12:46:19;5.75;;;3.38;;
7173;SDS011;3628;48.654;8.932;2023-06-22T12:48:45;6.00;;;3.90;;
7173;SDS011;3628;48.654;8.932;2023-06-22T12:51:10;7.90;;;3.35;;
7173;SDS011;3628;48.654;8.932;2023-06-22T12:53:36;9.65;;;3.58;;
7173;SDS011;3628;48.654;8.932;2023-06-22T12:56:02;9.73;;;3.42;;
7173;SDS011;3628;48.654;8.932;2023-06-22T12:58:27;4.80;;;3.05;;
7173;SDS011;3628;48.654;8.932;2023-06-22T13:00:53;9.15;;;3.72;;
7173;SDS011;3628;48.654;8.932;2023-06-22T13:03:18;9.60;;;3.65;;
7173;SDS011;3628;48.654;8.932;2023-06-22T13:05:44;11.05;;;4.45;;
7173;SDS011;3628;48.654;8.932;2023-06-22T13:08:09;6.88;;;3.40;;
7173;SDS011;3628;48.654;8.932;2023-06-22T13:10:36;7.18;;;3.40;;
7173;SDS011;3628;48.654;8.932;2023-06-22T13:13:01;11.60;;;3.30;;
7173;SDS011;3628;48.654;8.932;2023-06-22T13:15:27;8.85;;;3.63;;
7173;SDS011;3628;48.654;8.932;2023-06-22T13:17:53;7.90;;;3.20;;
7173;SDS011;3628;48.654;8.932;2023-06-22T13:20:19;5.60;;;3.05;;
7173;SDS011;3628;48.654;8.932;2023-06-22T13:22:44;9.77;;;3.90;;
7173;SDS011;3628;48.654;8.932;2023-06-22T13:25:10;6.85;;;3.78;;
7173;SDS011;3628;48.654;8.932;2023-06-22T13:27:43;7.03;;;3.42;;
7173;SDS011;3628;48.654;8.932;2023-06-22T13:30:09;7.45;;;3.53;;
7173;SDS011;3628;48.654;8.932;2023-06-22T13:32:35;7.38;;;3.58;;
7173;SDS011;3628;48.654;8.932;2023-06-22T13:35:01;8.57;;;3.85;;
7173;SDS011;3628;48.654;8.932;2023-06-22T13:37:26;10.52;;;3.80;;
7173;SDS011;3628;48.654;8.932;2023-06-22T13:39:52;6.18;;;3.35;;
7173;SDS011;3628;48.654;8.932;2023-06-22T13:42:18;7.47;;;3.45;;
7173;SDS011;3628;48.654;8.932;2023-06-22T13:44:43;7.53;;;3.35;;
7173;SDS011;3628;48.654;8.932;2023-06-22T13:47:09;7.10;;;3.38;;
7173;SDS011;3628;48.654;8.932;2023-06-22T13:49:34;7.53;;;3.60;;
7173;SDS011;3628;48.654;8.932;2023-06-22T13:52:00;8.50;;;3.50;;
7173;SDS011;3628;48.654;8.932;2023-06-22T13:54:28;7.53;;;3.85;;
7173;SDS011;3628;48.654;8.932;2023-06-22T13:56:53;7.78;;;3.63;;
7173;SDS011;3628;48.654;8.932;2023-06-22T13:59:19;7.57;;;3.90;;
7173;SDS011;3628;48.654;8.932;2023-06-22T14:01:45;7.30;;;3.35;;
7173;SDS011;3628;48.654;8.932;2023-06-22T14:04:11;7.68;;;3.55;;
7173;SDS011;3628;48.654;8.932;2023-06-22T14:06:37;5.18;;;3.45;;
7173;SDS011;3628;48.654;8.932;2023-06-22T14:09:03;6.32;;;3.58;;
7173;SDS011;3628;48.654;8.932;2023-06-22T14:11:29;11.25;;;3.38;;
7173;SDS011;3628;48.654;8.932;2023-06-22T14:13:54;7.07;;;2.50;;
7173;SDS011;3628;48.654;8.932;2023-06-22T14:16:20;11.10;;;2.78;;
7173;SDS011;3628;48.654;8.932;2023-06-22T14:18:45;7.30;;;2.85;;
7173;SDS011;3628;48.654;8.932;2023-06-22T14:21:11;6.93;;;2.40;;
7173;SDS011;3628;48.654;8.932;2023-06-22T14:23:36;6.15;;;1.80;;
7173;SDS011;3628;48.654;8.932;2023-06-22T14:26:03;9.10;;;2.28;;
7173;SDS011;3628;48.654;8.932;2023-06-22T14:28:28;8.02;;;2.33;;
7173;SDS011;3628;48.654;8.932;2023-06-22T14:30:54;7.68;;;2.53;;
7173;SDS011;3628;48.654;8.932;2023-06-22T14:33:19;9.05;;;2.35;;
7173;SDS011;3628;48.654;8.932;2023-06-22T14:35:45;7.38;;;2.15;;
7173;SDS011;3628;48.654;8.932;2023-06-22T14:38:11;9.10;;;2.22;;
7173;SDS011;3628;48.654;8.932;2023-06-22T14:40:36;5.28;;;2.30;;
7173;SDS011;3628;48.654;8.932;2023-06-22T14:43:02;10.85;;;2.50;;
7173;SDS011;3628;48.654;8.932;2023-06-22T14:45:27;7.55;;;2.33;;
7173;SDS011;3628;48.654;8.932;2023-06-22T14:47:53;7.50;;;2.20;;
7173;SDS011;3628;48.654;8.932;2023-06-22T14:50:18;5.22;;;2.22;;
7173;SDS011;3628;48.654;8.932;2023-06-22T14:52:44;9.77;;;2.70;;
7173;SDS011;3628;48.654;8.932;2023-06-22T14:55:09;9.57;;;2.17;;
7173;SDS011;3628;48.654;8.932;2023-06-22T14:57:35;6.90;;;2.40;;
7173;SDS011;3628;48.654;8.932;2023-06-22T15:00:00;4.05;;;1.60;;
7173;SDS011;3628;48.654;8.932;2023-06-22T15:02:27;7.13;;;2.30;;
7173;SDS011;3628;48.654;8.932;2023-06-22T15:04:53;9.60;;;1.98;;
7173;SDS011;3628;48.654;8.932;2023-06-22T15:07:19;6.93;;;2.00;;
7173;SDS011;3628;48.654;8.932;2023-06-22T15:09:45;10.02;;;2.72;;
7173;SDS011;3628;48.654;8.932;2023-06-22T15:12:11;8.13;;;2.20;;
7173;SDS011;3628;48.654;8.932;2023-06-22T15:14:40;5.13;;;2.10;;
7173;SDS011;3628;48.654;8.932;2023-06-22T15:17:08;8.10;;;2.20;;
7173;SDS011;3628;48.654;8.932;2023-06-22T15:19:37;7.75;;;2.28;;